Redoak, Ohio
Current Conditions -  °F | °C
As of 7:55 PM on Friday 24 Oct 2014 (Local Time) from KFGX Reporting Station
Clear Clear  
Wind Chill: 53°   Ceiling: Unl
Heat Index: 53°   Visibility: 10mi
Dew Point: 40°   Wind: 6mph
Humidity: 62%   Direction: 230°SW
Pressure: 30.07"   Gusts: NA
Location:  38.776°N, 83.7985°W
Report Text: KFGX 242355Z AUTO 23005KT 10SM CLR 12/05 A3007 RMK AO2 T01170046 10183 20117
Loading
Personal Weather Stations






























Interactive Weather Map
Tropical Storm Tracking
New forecast layout! Learn more

10-Day Weather Forecast

Advertisements
Track Severe Weather on mobile